createdAt,value
2022-10-26T00:00:35.806Z,45.6
2022-10-26T00:36:38.063Z,45.6
2022-10-26T01:06:39.771Z,45.1
2022-10-26T01:37:41.814Z,44.5
2022-10-26T02:07:43.648Z,44.5
2022-10-26T02:37:45.513Z,45.1
2022-10-26T03:09:47.404Z,45.6
2022-10-26T03:41:49.266Z,46.2
2022-10-26T04:12:51.185Z,46.2
2022-10-26T04:42:53.025Z,45.1
2022-10-26T05:12:54.670Z,45.1
2022-10-26T05:42:56.458Z,45.1
2022-10-26T06:12:58.326Z,45.6
2022-10-26T06:43:00.331Z,45.6
2022-10-26T07:14:02.107Z,47.8
2022-10-26T07:46:04.130Z,48.9
2022-10-26T08:17:05.994Z,52.1
2022-10-26T08:47:08.040Z,53.7
2022-10-26T09:17:09.887Z,53.7
2022-10-26T09:47:11.823Z,51.5
2022-10-26T10:17:13.766Z,54.8
2022-10-26T10:49:15.770Z,54.2
2022-10-26T11:20:17.531Z,58.5
2022-10-26T11:50:19.331Z,56.9
2022-10-26T12:21:21.333Z,58.5
2022-10-26T12:51:23.064Z,58
2022-10-26T13:22:25.082Z,62.3
2022-10-26T13:58:27.219Z,57.5
2022-10-26T14:28:29.365Z,55.3
2022-10-26T15:02:31.420Z,52.1
2022-10-26T15:34:33.331Z,49.9
2022-10-26T16:05:35.211Z,49.9
2022-10-26T16:36:37.178Z,47.8
2022-10-26T17:06:39.007Z,47.2
2022-10-26T17:40:40.971Z,45.6
2022-10-26T18:12:43.072Z,45.6
2022-10-26T18:43:44.837Z,44
2022-10-26T19:13:46.683Z,44.5
2022-10-26T19:43:48.633Z,43.5
2022-10-26T20:01:49.769Z,43.5
2022-10-26T20:31:51.631Z,43.5
2022-10-26T20:54:57.266Z,42.9
2022-10-26T21:25:59.087Z,43.5
2022-10-26T21:56:01.068Z,43.5
2022-10-26T22:26:02.930Z,44
2022-10-26T22:59:05.028Z,44.5
2022-10-26T23:35:07.206Z,44.5
